createdAt,value
2018-04-01T00:00:33.292Z,998.32
2018-04-01T00:01:33.404Z,998.35
2018-04-01T00:02:33.411Z,998.42
2018-04-01T00:03:33.446Z,998.42
2018-04-01T00:04:33.435Z,998.52
2018-04-01T00:05:35.253Z,998.56
2018-04-01T00:06:33.437Z,998.66
2018-04-01T00:07:33.346Z,998.73
2018-04-01T00:08:33.458Z,998.78
2018-04-01T00:09:33.466Z,998.85
2018-04-01T00:10:33.479Z,998.88
2018-04-01T00:11:33.506Z,998.89
2018-04-01T00:12:33.482Z,998.97
2018-04-01T00:13:33.490Z,999.00
2018-04-01T00:14:33.402Z,999.02
2018-04-01T00:15:34.670Z,999.04
2018-04-01T00:16:33.309Z,999.09
2018-04-01T00:17:33.335Z,999.04
2018-04-01T00:18:33.333Z,999.04
2018-04-01T00:19:33.321Z,999.07
2018-04-01T00:20:33.344Z,999.10
2018-04-01T00:21:33.350Z,999.09
2018-04-01T00:22:33.350Z,999.10
2018-04-01T00:23:33.364Z,999.06
2018-04-01T00:24:35.244Z,999.11
2018-04-01T00:25:33.176Z,999.17
2018-04-01T00:26:33.299Z,999.19
2018-04-01T00:27:33.293Z,999.24
2018-04-01T00:28:33.403Z,999.19
2018-04-01T00:29:33.412Z,999.20
2018-04-01T00:30:33.420Z,999.20
2018-04-01T00:31:33.414Z,999.27
2018-04-01T00:32:33.422Z,999.16
2018-04-01T00:33:33.442Z,999.24
2018-04-01T00:34:33.437Z,999.21
2018-04-01T00:35:33.451Z,999.26
2018-04-01T00:36:33.479Z,999.24
2018-04-01T00:37:33.361Z,999.25
2018-04-01T00:38:33.362Z,999.22
2018-04-01T00:39:33.489Z,999.32
2018-04-01T00:40:33.490Z,999.32
2018-04-01T00:41:33.490Z,999.35
2018-04-01T00:42:33.517Z,999.34
2018-04-01T00:43:33.401Z,999.37
2018-04-01T00:44:33.510Z,999.48
2018-04-01T00:45:33.522Z,999.44
2018-04-01T00:46:35.770Z,999.48
2018-04-01T00:47:33.334Z,999.49
2018-04-01T00:48:33.338Z,999.48
2018-04-01T00:49:34.373Z,999.49
2018-04-01T00:50:33.357Z,999.48
2018-04-01T00:51:33.357Z,999.52
2018-04-01T00:52:33.581Z,999.57
2018-04-01T00:53:33.380Z,999.55
2018-04-01T00:54:33.402Z,999.58
2018-04-01T00:55:33.391Z,999.59
2018-04-01T00:56:33.402Z,999.55
2018-04-01T00:57:33.393Z,999.59
2018-04-01T00:58:33.404Z,999.57
2018-04-01T00:59:33.417Z,999.53
2018-04-01T01:00:33.419Z,999.60
2018-04-01T01:01:33.322Z,999.51
2018-04-01T01:02:33.445Z,999.58
2018-04-01T01:03:33.446Z,999.60
2018-04-01T01:04:33.454Z,999.63
2018-04-01T01:05:33.694Z,999.65
2018-04-01T01:06:33.368Z,999.67
2018-04-01T01:07:33.364Z,999.69
2018-04-01T01:08:33.374Z,999.69
2018-04-01T01:09:33.727Z,999.71
2018-04-01T01:10:33.185Z,999.69
2018-04-01T01:11:33.204Z,999.67
2018-04-01T01:12:33.196Z,999.75
2018-04-01T01:13:33.347Z,999.76
2018-04-01T01:14:33.418Z,999.73
2018-04-01T01:15:34.796Z,999.73
2018-04-01T01:16:33.328Z,999.76
2018-04-01T01:17:33.282Z,999.76
2018-04-01T01:18:33.481Z,999.74
2018-04-01T01:19:33.477Z,999.76
2018-04-01T01:20:33.357Z,999.77
2018-04-01T01:21:33.375Z,999.73
2018-04-01T01:22:33.386Z,999.75
2018-04-01T01:23:33.387Z,999.75
2018-04-01T01:24:33.390Z,999.78
2018-04-01T01:25:33.402Z,999.72
2018-04-01T01:26:33.405Z,999.73
2018-04-01T01:27:33.413Z,999.73
2018-04-01T01:28:33.434Z,999.73
2018-04-01T01:29:33.436Z,999.70
2018-04-01T01:30:33.433Z,999.72
2018-04-01T01:31:33.440Z,999.69
2018-04-01T01:32:33.358Z,999.77
2018-04-01T01:33:33.461Z,999.71
2018-04-01T01:34:33.466Z,999.71
2018-04-01T01:35:33.477Z,999.73
2018-04-01T01:36:33.477Z,999.75
2018-04-01T01:37:33.494Z,999.74
2018-04-01T01:38:33.493Z,999.74
2018-04-01T01:39:33.502Z,999.72
2018-04-01T01:40:33.747Z,999.82
2018-04-01T01:41:33.514Z,999.82
2018-04-01T01:42:33.118Z,999.88
2018-04-01T01:43:33.533Z,999.86
2018-04-01T01:44:33.541Z,999.88
2018-04-01T01:45:33.552Z,999.88
2018-04-01T01:46:33.558Z,999.92
2018-04-01T01:47:34.819Z,999.88
2018-04-01T01:48:33.561Z,999.90
2018-04-01T01:49:33.578Z,999.86
2018-04-01T01:50:36.898Z,999.85
2018-04-01T01:51:33.614Z,999.95
2018-04-01T01:52:33.602Z,999.95
2018-04-01T01:53:35.877Z,1000.01
2018-04-01T01:54:33.423Z,999.93
2018-04-01T01:55:33.408Z,999.99
2018-04-01T01:56:33.422Z,1000.07
2018-04-01T01:57:33.422Z,1000.02
2018-04-01T01:58:33.441Z,1000.02
2018-04-01T01:59:33.337Z,1000.03
2018-04-01T02:00:33.477Z,1000.05
2018-04-01T02:01:36.766Z,1000.03
2018-04-01T02:02:33.510Z,1000.09
2018-04-01T02:03:35.553Z,1000.15
2018-04-01T02:04:33.482Z,1000.13
2018-04-01T02:05:33.485Z,1000.09
2018-04-01T02:06:33.496Z,1000.09
2018-04-01T02:07:33.502Z,1000.13
2018-04-01T02:08:33.505Z,1000.12
2018-04-01T02:09:33.512Z,1000.17
2018-04-01T02:10:33.521Z,1000.17
2018-04-01T02:11:33.326Z,1000.19
2018-04-01T02:12:33.332Z,1000.22
2018-04-01T02:13:33.535Z,1000.24
2018-04-01T02:14:36.649Z,1000.25
2018-04-01T02:15:34.690Z,1000.27
2018-04-01T02:16:33.565Z,1000.29
2018-04-01T02:17:33.772Z,1000.32
2018-04-01T02:18:33.573Z,1000.37
2018-04-01T02:19:33.584Z,1000.36
2018-04-01T02:20:37.916Z,1000.39
2018-04-01T02:21:33.609Z,1000.42
2018-04-01T02:22:33.607Z,1000.48
2018-04-01T02:23:33.612Z,1000.46
2018-04-01T02:24:33.651Z,1000.54
2018-04-01T02:25:33.442Z,1000.53
2018-04-01T02:26:33.441Z,1000.53
2018-04-01T02:27:33.346Z,1000.51
2018-04-01T02:28:33.475Z,1000.54
2018-04-01T02:29:33.473Z,1000.60
2018-04-01T02:30:39.138Z,1000.51
2018-04-01T02:31:45.150Z,1000.61
2018-04-01T02:32:52.450Z,1000.62
2018-04-01T02:33:46.354Z,1000.65
2018-04-01T02:34:46.958Z,1000.64
2018-04-01T02:35:48.872Z,1000.64
2018-04-01T02:36:33.401Z,1000.62
2018-04-01T02:37:33.411Z,1000.62
2018-04-01T02:38:33.545Z,1000.67
2018-04-01T02:39:38.747Z,1000.66
2018-04-01T02:40:35.537Z,1000.71
2018-04-01T02:41:33.340Z,1000.67
2018-04-01T02:42:33.349Z,1000.68
2018-04-01T02:43:33.787Z,1000.74
2018-04-01T02:44:33.359Z,1000.70
2018-04-01T02:45:33.366Z,1000.70
2018-04-01T02:46:33.379Z,1000.68
2018-04-01T02:47:33.824Z,1000.71
2018-04-01T02:48:33.389Z,1000.71
2018-04-01T02:49:33.410Z,1000.72
2018-04-01T02:50:33.409Z,1000.76
2018-04-01T02:51:36.510Z,1000.77
2018-04-01T02:52:33.423Z,1000.71
2018-04-01T02:53:33.425Z,1000.77
2018-04-01T02:54:33.438Z,1000.74
2018-04-01T02:55:33.653Z,1000.77
2018-04-01T02:56:34.438Z,1000.74
2018-04-01T02:57:33.347Z,1000.76
2018-04-01T02:58:33.361Z,1000.76
2018-04-01T02:59:33.371Z,1000.75
2018-04-01T03:00:33.380Z,1000.79
2018-04-01T03:01:33.395Z,1000.83
2018-04-01T03:02:33.426Z,1000.83
2018-04-01T03:03:33.434Z,1000.77
2018-04-01T03:04:33.486Z,1000.82
2018-04-01T03:05:33.452Z,1000.77
2018-04-01T03:06:33.415Z,1000.83
2018-04-01T03:07:33.429Z,1000.87
2018-04-01T03:08:33.666Z,1000.77
2018-04-01T03:09:33.465Z,1000.82
2018-04-01T03:10:33.446Z,1000.82
2018-04-01T03:11:33.352Z,1000.81
2018-04-01T03:12:33.681Z,1000.88
2018-04-01T03:13:33.370Z,1000.89
2018-04-01T03:14:33.374Z,1000.88
2018-04-01T03:15:37.479Z,1000.90
2018-04-01T03:16:33.391Z,1000.94
2018-04-01T03:17:33.504Z,1000.87
2018-04-01T03:18:33.509Z,1001.01
2018-04-01T03:19:33.510Z,1000.96
2018-04-01T03:20:33.526Z,1000.96
2018-04-01T03:21:33.537Z,1000.98
2018-04-01T03:22:33.530Z,1001.03
2018-04-01T03:23:33.548Z,1000.98
2018-04-01T03:24:33.540Z,1000.99
2018-04-01T03:25:33.568Z,1000.98
2018-04-01T03:26:33.571Z,1001.03
2018-04-01T03:27:33.477Z,1001.01
2018-04-01T03:28:33.802Z,1001.01
2018-04-01T03:29:33.635Z,1000.99
2018-04-01T03:30:33.389Z,1001.04
2018-04-01T03:31:33.407Z,1001.11
2018-04-01T03:32:33.397Z,1001.10
2018-04-01T03:33:33.309Z,1001.07
2018-04-01T03:34:33.641Z,1001.09
2018-04-01T03:35:33.426Z,1001.18
2018-04-01T03:36:33.430Z,1001.20
2018-04-01T03:37:33.440Z,1001.16
2018-04-01T03:38:33.438Z,1001.17
2018-04-01T03:39:33.450Z,1001.17
2018-04-01T03:40:33.476Z,1001.21
2018-04-01T03:41:33.469Z,1001.26
2018-04-01T03:42:33.480Z,1001.26
2018-04-01T03:43:33.397Z,1001.28
2018-04-01T03:44:33.395Z,1001.32
2018-04-01T03:45:33.389Z,1001.24
2018-04-01T03:46:33.511Z,1001.31
2018-04-01T03:47:33.501Z,1001.38
2018-04-01T03:48:33.518Z,1001.35
2018-04-01T03:49:33.531Z,1001.39
2018-04-01T03:50:33.530Z,1001.37
2018-04-01T03:51:33.543Z,1001.43
2018-04-01T03:52:33.579Z,1001.45
2018-04-01T03:53:33.477Z,1001.43
2018-04-01T03:54:33.557Z,1001.45
2018-04-01T03:55:33.574Z,1001.45
2018-04-01T03:56:33.574Z,1001.47
2018-04-01T03:57:33.582Z,1001.49
2018-04-01T03:58:33.626Z,1001.49
2018-04-01T03:59:33.589Z,1001.47
2018-04-01T04:00:33.501Z,1001.49
2018-04-01T04:01:33.401Z,1001.49
2018-04-01T04:02:33.413Z,1001.53
2018-04-01T04:03:33.430Z,1001.56
2018-04-01T04:04:33.426Z,1001.56
2018-04-01T04:05:33.644Z,1001.58
2018-04-01T04:06:33.446Z,1001.59
2018-04-01T04:07:33.451Z,1001.61
2018-04-01T04:08:33.454Z,1001.64
2018-04-01T04:09:33.465Z,1001.65
2018-04-01T04:10:34.493Z,1001.57
2018-04-01T04:11:33.474Z,1001.65
2018-04-01T04:12:33.486Z,1001.63
2018-04-01T04:13:33.491Z,1001.64
2018-04-01T04:14:33.497Z,1001.62
2018-04-01T04:15:34.842Z,1001.61
2018-04-01T04:16:33.514Z,1001.67
2018-04-01T04:17:33.530Z,1001.70
2018-04-01T04:18:33.866Z,1001.63
2018-04-01T04:19:33.529Z,1001.69
2018-04-01T04:20:33.546Z,1001.73
2018-04-01T04:21:33.554Z,1001.71
2018-04-01T04:22:33.559Z,1001.72
2018-04-01T04:23:33.564Z,1001.73
2018-04-01T04:24:33.576Z,1001.70
2018-04-01T04:25:33.572Z,1001.71
2018-04-01T04:26:33.486Z,1001.78
2018-04-01T04:27:33.594Z,1001.86
2018-04-01T04:28:33.602Z,1001.86
2018-04-01T04:29:33.843Z,1001.90
2018-04-01T04:30:33.407Z,1001.95
2018-04-01T04:31:33.416Z,1001.92
2018-04-01T04:32:33.421Z,1002.01
2018-04-01T04:33:33.638Z,1001.97
2018-04-01T04:34:33.443Z,1002.02
2018-04-01T04:35:33.452Z,1001.97
2018-04-01T04:36:33.463Z,1002.03
2018-04-01T04:37:33.461Z,1002.00
2018-04-01T04:38:33.469Z,1002.02
2018-04-01T04:39:33.477Z,1002.03
2018-04-01T04:40:33.506Z,1002.03
2018-04-01T04:41:33.497Z,1002.03
2018-04-01T04:42:33.493Z,1002.11
2018-04-01T04:43:33.506Z,1002.17
2018-04-01T04:44:33.524Z,1002.17
2018-04-01T04:45:33.525Z,1002.17
2018-04-01T04:46:33.526Z,1002.19
2018-04-01T04:47:33.541Z,1002.17
2018-04-01T04:48:33.543Z,1002.22
2018-04-01T04:49:33.549Z,1002.25
2018-04-01T04:50:33.558Z,1002.23
2018-04-01T04:51:33.557Z,1002.32
2018-04-01T04:52:33.570Z,1002.34
2018-04-01T04:53:33.997Z,1002.31
2018-04-01T04:54:33.583Z,1002.37
2018-04-01T04:55:36.430Z,1002.36
2018-04-01T04:56:33.498Z,1002.39
2018-04-01T04:57:33.506Z,1002.43
2018-04-01T04:58:33.418Z,1002.45
2018-04-01T04:59:33.850Z,1002.44
2018-04-01T05:00:33.421Z,1002.52
2018-04-01T05:01:33.433Z,1002.51
2018-04-01T05:02:33.443Z,1002.49
2018-04-01T05:03:33.887Z,1002.52
2018-04-01T05:04:33.458Z,1002.57
2018-04-01T05:05:33.462Z,1002.55
2018-04-01T05:06:33.470Z,1002.64
2018-04-01T05:07:33.670Z,1002.66
2018-04-01T05:08:33.481Z,1002.71
2018-04-01T05:09:33.488Z,1002.68
2018-04-01T05:10:33.497Z,1002.69
2018-04-01T05:11:33.510Z,1002.70
2018-04-01T05:12:33.522Z,1002.74
2018-04-01T05:13:33.537Z,1002.73
2018-04-01T05:14:33.530Z,1002.75
2018-04-01T05:15:34.670Z,1002.76
2018-04-01T05:16:33.544Z,1002.79
2018-04-01T05:17:33.551Z,1002.81
2018-04-01T05:18:33.559Z,1002.87
2018-04-01T05:19:33.575Z,1002.87
2018-04-01T05:20:33.595Z,1002.87
2018-04-01T05:21:33.574Z,1002.89
2018-04-01T05:22:33.818Z,1002.94
2018-04-01T05:23:33.386Z,1002.93
2018-04-01T05:24:33.822Z,1002.94
2018-04-01T05:25:33.506Z,1003.01
2018-04-01T05:26:33.531Z,1003.02
2018-04-01T05:27:33.426Z,1003.04
2018-04-01T05:28:34.654Z,1003.04
2018-04-01T05:29:33.871Z,1003.08
2018-04-01T05:30:33.455Z,1003.05
2018-04-01T05:31:33.484Z,1003.15
2018-04-01T05:32:33.455Z,1003.14
2018-04-01T05:33:33.667Z,1003.19
2018-04-01T05:34:33.682Z,1003.19
2018-04-01T05:35:33.678Z,1003.24
2018-04-01T05:36:33.690Z,1003.25
2018-04-01T05:37:33.697Z,1003.27
2018-04-01T05:38:33.694Z,1003.31
2018-04-01T05:39:34.962Z,1003.37
2018-04-01T05:40:33.413Z,1003.31
2018-04-01T05:41:36.356Z,1003.35
2018-04-01T05:42:33.422Z,1003.41
2018-04-01T05:43:33.329Z,1003.41
2018-04-01T05:44:37.284Z,1003.38
2018-04-01T05:45:33.773Z,1003.30
2018-04-01T05:46:35.641Z,1003.41
2018-04-01T05:47:33.565Z,1003.44
2018-04-01T05:48:33.465Z,1003.43
2018-04-01T05:49:33.482Z,1003.45
2018-04-01T05:50:33.580Z,1003.40
2018-04-01T05:51:33.526Z,1003.45
2018-04-01T05:52:33.517Z,1003.46
2018-04-01T05:53:33.543Z,1003.51
2018-04-01T05:54:33.650Z,1003.50
2018-04-01T05:55:39.497Z,1003.49
2018-04-01T05:56:33.562Z,1003.47
2018-04-01T05:57:33.426Z,1003.49
2018-04-01T05:58:33.641Z,1003.48
2018-04-01T05:59:33.488Z,1003.54
2018-04-01T06:00:36.141Z,1003.60
2018-04-01T06:01:33.466Z,1003.60
2018-04-01T06:02:36.546Z,1003.62
2018-04-01T06:03:33.870Z,1003.63
2018-04-01T06:04:33.482Z,1003.56
2018-04-01T06:05:33.488Z,1003.67
2018-04-01T06:06:33.495Z,1003.63
2018-04-01T06:07:33.700Z,1003.67
2018-04-01T06:08:33.629Z,1003.67
2018-04-01T06:09:33.724Z,1003.69
2018-04-01T06:10:33.745Z,1003.72
2018-04-01T06:11:33.535Z,1003.75
2018-04-01T06:12:33.573Z,1003.77
2018-04-01T06:13:33.591Z,1003.78
2018-04-01T06:14:33.590Z,1003.81
2018-04-01T06:15:35.230Z,1003.83
2018-04-01T06:16:33.505Z,1003.88
2018-04-01T06:17:33.405Z,1003.85
2018-04-01T06:18:33.513Z,1003.91
2018-04-01T06:19:33.520Z,1003.97
2018-04-01T06:20:33.539Z,1003.97
2018-04-01T06:21:33.441Z,1004.04
2018-04-01T06:22:33.546Z,1004.08
2018-04-01T06:23:33.450Z,1004.12
2018-04-01T06:24:33.661Z,1004.03
2018-04-01T06:25:33.674Z,1004.08
2018-04-01T06:26:33.677Z,1004.06
2018-04-01T06:27:33.680Z,1004.04
2018-04-01T06:28:36.662Z,1004.12
2018-04-01T06:29:33.702Z,1004.13
2018-04-01T06:30:33.707Z,1004.07
2018-04-01T06:31:33.485Z,1004.10
2018-04-01T06:32:34.026Z,1004.13
2018-04-01T06:33:33.931Z,1004.14
2018-04-01T06:34:33.938Z,1004.13
2018-04-01T06:35:33.942Z,1004.19
2018-04-01T06:36:33.750Z,1004.18
2018-04-01T06:37:36.861Z,1004.26
2018-04-01T06:38:33.768Z,1004.27
2018-04-01T06:39:33.772Z,1004.22
2018-04-01T06:40:33.785Z,1004.26
2018-04-01T06:41:33.825Z,1004.22
2018-04-01T06:42:33.789Z,1004.32
2018-04-01T06:43:38.462Z,1004.28
2018-04-01T06:44:33.498Z,1004.33
2018-04-01T06:45:33.813Z,1004.35
2018-04-01T06:46:33.921Z,1004.37
2018-04-01T06:47:33.621Z,1004.39
2018-04-01T06:48:33.637Z,1004.32
2018-04-01T06:49:33.638Z,1004.36
2018-04-01T06:50:33.651Z,1004.42
2018-04-01T06:51:33.546Z,1004.42
2018-04-01T06:52:33.566Z,1004.49
2018-04-01T06:53:33.670Z,1004.43
2018-04-01T06:54:33.682Z,1004.48
2018-04-01T06:55:33.686Z,1004.50
2018-04-01T06:56:33.692Z,1004.53
2018-04-01T06:57:33.707Z,1004.53
2018-04-01T06:58:44.868Z,1004.53
2018-04-01T06:59:33.514Z,1004.52
2018-04-01T07:00:36.186Z,1004.51
2018-04-01T07:01:33.476Z,1004.51
2018-04-01T07:02:33.546Z,1004.48
2018-04-01T07:03:33.400Z,1004.52
2018-04-01T07:04:33.194Z,1004.58
2018-04-01T07:05:33.512Z,1004.59
2018-04-01T07:06:36.294Z,1004.58
2018-04-01T07:07:33.521Z,1004.53
2018-04-01T07:08:40.799Z,1004.52
2018-04-01T07:09:33.580Z,1004.52
2018-04-01T07:10:33.588Z,1004.58
2018-04-01T07:11:33.602Z,1004.54
2018-04-01T07:12:33.603Z,1004.59
2018-04-01T07:13:39.346Z,1004.58
2018-04-01T07:14:35.998Z,1004.58
2018-04-01T07:15:36.973Z,1004.63
2018-04-01T07:16:33.533Z,1004.66
2018-04-01T07:17:33.558Z,1004.68
2018-04-01T07:18:33.548Z,1004.65
2018-04-01T07:19:34.581Z,1004.68
2018-04-01T07:20:33.563Z,1004.74
2018-04-01T07:21:33.571Z,1004.75
2018-04-01T07:22:33.583Z,1004.74
2018-04-01T07:23:33.547Z,1004.77
2018-04-01T07:24:33.545Z,1004.81
2018-04-01T07:25:33.593Z,1004.85
2018-04-01T07:26:33.556Z,1004.89
2018-04-01T07:27:33.571Z,1004.88
2018-04-01T07:28:33.586Z,1004.93
2018-04-01T07:29:39.471Z,1004.92
2018-04-01T07:30:33.525Z,1004.97
2018-04-01T07:31:33.430Z,1004.96
2018-04-01T07:32:33.545Z,1004.98
2018-04-01T07:33:33.545Z,1004.98
2018-04-01T07:34:33.419Z,1005.07
2018-04-01T07:35:33.562Z,1005.03
2018-04-01T07:38:09.936Z,1005.03
2018-04-01T07:38:33.586Z,1005.05
2018-04-01T07:39:36.566Z,1005.02
2018-04-01T07:40:33.452Z,1005.01
2018-04-01T07:41:33.483Z,1005.03
2018-04-01T07:42:39.214Z,1005.07
2018-04-01T07:43:36.202Z,1005.06
2018-04-01T07:44:36.037Z,1005.09
2018-04-01T07:45:33.390Z,1005.16
2018-04-01T07:46:36.279Z,1005.17
2018-04-01T07:47:33.118Z,1005.25
2018-04-01T07:48:33.123Z,1005.28
2018-04-01T07:49:33.518Z,1005.24
2018-04-01T07:50:33.529Z,1005.21
2018-04-01T07:51:33.542Z,1005.20
2018-04-01T07:52:39.499Z,1005.26
2018-04-01T07:53:33.550Z,1005.29
2018-04-01T07:54:33.567Z,1005.20
2018-04-01T07:55:33.368Z,1005.26
2018-04-01T07:56:33.577Z,1005.28
2018-04-01T07:57:33.597Z,1005.30
2018-04-01T07:58:33.585Z,1005.38
2018-04-01T07:59:36.548Z,1005.36
2018-04-01T08:00:33.500Z,1005.37
2018-04-01T08:01:33.411Z,1005.40
2018-04-01T08:02:34.443Z,1005.40
2018-04-01T08:03:34.271Z,1005.49
2018-04-01T08:04:34.242Z,1005.49
2018-04-01T08:05:37.309Z,1005.48
2018-04-01T08:06:38.192Z,1005.60
2018-04-01T08:07:37.422Z,1005.55
2018-04-01T08:08:35.828Z,1005.53
2018-04-01T08:09:38.178Z,1005.57
2018-04-01T08:10:35.479Z,1005.54
2018-04-01T08:11:35.161Z,1005.53
2018-04-01T08:12:37.497Z,1005.55
2018-04-01T08:13:35.062Z,1005.60
2018-04-01T08:14:35.219Z,1005.62
2018-04-01T08:15:36.376Z,1005.61
2018-04-01T08:16:35.214Z,1005.57
2018-04-01T08:17:35.019Z,1005.62
2018-04-01T08:18:34.640Z,1005.64
2018-04-01T08:19:35.163Z,1005.72
2018-04-01T08:20:35.018Z,1005.72
2018-04-01T08:21:37.579Z,1005.76
2018-04-01T08:22:34.805Z,1005.76
2018-04-01T08:23:35.090Z,1005.72
2018-04-01T08:24:34.833Z,1005.73
2018-04-01T08:25:35.235Z,1005.71
2018-04-01T08:26:34.822Z,1005.74
2018-04-01T08:27:34.797Z,1005.81
2018-04-01T08:28:34.802Z,1005.80
2018-04-01T08:29:34.731Z,1005.74
2018-04-01T08:30:34.952Z,1005.77
2018-04-01T08:31:38.147Z,1005.86
2018-04-01T08:32:34.821Z,1005.80
2018-04-01T08:33:35.038Z,1005.86
2018-04-01T08:34:34.807Z,1005.90
2018-04-01T08:35:35.074Z,1005.93
2018-04-01T08:36:35.052Z,1005.96
2018-04-01T08:37:34.550Z,1005.94
2018-04-01T08:38:34.811Z,1005.98
2018-04-01T08:39:34.798Z,1005.96
2018-04-01T08:40:34.849Z,1006.03
2018-04-01T08:41:36.923Z,1006.03
2018-04-01T08:42:35.279Z,1006.03
2018-04-01T08:43:34.999Z,1006.00
2018-04-01T08:44:35.171Z,1006.08
2018-04-01T08:45:35.010Z,1006.05
2018-04-01T08:46:38.048Z,1006.10
2018-04-01T08:47:35.103Z,1006.06
2018-04-01T08:48:34.945Z,1006.09
2018-04-01T08:49:34.996Z,1006.11
2018-04-01T08:50:35.051Z,1006.15
2018-04-01T08:51:35.152Z,1006.13
2018-04-01T08:52:35.312Z,1006.15
2018-04-01T08:53:35.116Z,1006.17
2018-04-01T08:54:35.119Z,1006.15
2018-04-01T08:55:35.054Z,1006.20
2018-04-01T08:56:35.100Z,1006.22
2018-04-01T08:57:34.991Z,1006.18
2018-04-01T08:58:35.005Z,1006.19
2018-04-01T08:59:34.874Z,1006.24
2018-04-01T09:00:34.920Z,1006.20
2018-04-01T09:01:33.668Z,1006.29
2018-04-01T09:02:33.550Z,1006.30
2018-04-01T09:03:33.553Z,1006.34
2018-04-01T09:04:33.560Z,1006.36
2018-04-01T09:05:33.570Z,1006.32
2018-04-01T09:06:36.110Z,1006.40
2018-04-01T09:07:39.933Z,1006.40
2018-04-01T09:08:33.591Z,1006.48
2018-04-01T09:09:33.521Z,1006.49
2018-04-01T09:10:33.492Z,1006.48
2018-04-01T09:11:33.619Z,1006.53
2018-04-01T09:12:33.626Z,1006.53
2018-04-01T09:13:33.624Z,1006.53
2018-04-01T09:14:33.428Z,1006.54
2018-04-01T09:15:34.869Z,1006.60
2018-04-01T09:16:33.561Z,1006.62
2018-04-01T09:17:33.545Z,1006.73
2018-04-01T09:18:33.562Z,1006.65
2018-04-01T09:19:33.565Z,1006.65
2018-04-01T09:20:33.570Z,1006.58
2018-04-01T09:21:33.586Z,1006.56
2018-04-01T09:22:33.691Z,1006.56
2018-04-01T09:23:33.588Z,1006.55
2018-04-01T09:24:39.599Z,1006.56
2018-04-01T09:25:33.602Z,1006.60
2018-04-01T09:26:33.617Z,1006.57
2018-04-01T09:27:33.630Z,1006.55
2018-04-01T09:28:33.654Z,1006.61
2018-04-01T09:29:33.625Z,1006.58
2018-04-01T09:30:33.654Z,1006.58
2018-04-01T09:31:33.671Z,1006.59
2018-04-01T09:32:33.660Z,1006.62
2018-04-01T09:33:33.645Z,1006.60
2018-04-01T09:34:36.663Z,1006.66
2018-04-01T09:35:33.681Z,1006.63
2018-04-01T09:36:33.586Z,1006.65
2018-04-01T09:37:33.594Z,1006.62
2018-04-01T09:38:35.193Z,1006.59
2018-04-01T09:39:33.614Z,1006.66
2018-04-01T09:40:33.617Z,1006.61
2018-04-01T09:41:33.638Z,1006.63
2018-04-01T09:42:33.629Z,1006.59
2018-04-01T09:43:33.662Z,1006.60
2018-04-01T09:44:33.658Z,1006.64
2018-04-01T09:45:33.659Z,1006.54
2018-04-01T09:46:35.441Z,1006.58
2018-04-01T09:47:33.585Z,1006.54
2018-04-01T09:48:33.579Z,1006.55
2018-04-01T09:49:33.582Z,1006.60
2018-04-01T09:50:33.586Z,1006.56
2018-04-01T09:51:33.786Z,1006.58
2018-04-01T09:52:33.906Z,1006.57
2018-04-01T09:53:36.593Z,1006.54
2018-04-01T09:54:33.618Z,1006.53
2018-04-01T09:55:43.884Z,1006.48
2018-04-01T09:56:51.012Z,1006.52
2018-04-01T09:57:46.095Z,1006.46
2018-04-01T09:58:49.238Z,1006.56
2018-04-01T09:59:43.487Z,1006.54
2018-04-01T10:00:47.196Z,1006.59
2018-04-01T10:01:49.864Z,1006.57
2018-04-01T10:02:52.244Z,1006.55
2018-04-01T10:03:50.348Z,1006.57
2018-04-01T10:04:33.595Z,1006.55
2018-04-01T10:05:42.918Z,1006.57
2018-04-01T10:06:35.138Z,1006.56
2018-04-01T10:07:33.610Z,1006.63
2018-04-01T10:08:33.614Z,1006.69
2018-04-01T10:09:33.617Z,1006.66
2018-04-01T10:10:33.629Z,1006.69
2018-04-01T10:11:33.635Z,1006.70
2018-04-01T10:12:33.645Z,1006.78
2018-04-01T10:13:33.653Z,1006.76
2018-04-01T10:14:33.701Z,1006.76
2018-04-01T10:15:34.802Z,1006.84
2018-04-01T10:16:33.679Z,1006.84
2018-04-01T10:17:33.702Z,1006.75
2018-04-01T10:18:33.580Z,1006.80
2018-04-01T10:19:36.509Z,1006.83
2018-04-01T10:20:33.631Z,1006.83
2018-04-01T10:21:33.602Z,1006.80
2018-04-01T10:22:33.610Z,1006.82
2018-04-01T10:23:33.617Z,1006.84
2018-04-01T10:24:36.421Z,1006.80
2018-04-01T10:25:46.626Z,1006.85
2018-04-01T10:26:33.648Z,1006.84
2018-04-01T10:27:33.641Z,1006.81
2018-04-01T10:28:36.650Z,1006.85
2018-04-01T10:29:33.678Z,1006.84
2018-04-01T10:30:33.778Z,1006.90
2018-04-01T10:31:33.677Z,1006.88
2018-04-01T10:32:33.753Z,1006.91
2018-04-01T10:33:33.594Z,1006.85
2018-04-01T10:34:33.610Z,1006.96
2018-04-01T10:35:33.605Z,1006.94
2018-04-01T10:36:33.611Z,1006.89
2018-04-01T10:37:33.625Z,1006.91
2018-04-01T10:38:44.192Z,1006.81
2018-04-01T10:39:40.489Z,1006.93
2018-04-01T10:40:44.814Z,1006.96
2018-04-01T10:41:33.652Z,1006.92
2018-04-01T10:42:33.652Z,1006.94
2018-04-01T10:43:36.014Z,1006.94
2018-04-01T10:44:36.434Z,1006.96
2018-04-01T10:45:33.710Z,1006.99
2018-04-01T10:46:33.586Z,1006.98
2018-04-01T10:47:33.689Z,1006.94
2018-04-01T10:48:33.697Z,1006.95
2018-04-01T10:49:33.654Z,1006.93
2018-04-01T10:50:33.665Z,1006.94
2018-04-01T10:51:33.625Z,1006.89
2018-04-01T10:52:33.644Z,1006.90
2018-04-01T10:53:33.638Z,1006.95
2018-04-01T10:54:33.641Z,1007.00
2018-04-01T10:55:33.550Z,1007.01
2018-04-01T10:56:36.321Z,1006.97
2018-04-01T10:57:33.666Z,1007.04
2018-04-01T10:58:33.673Z,1007.02
2018-04-01T10:59:33.682Z,1006.98
2018-04-01T11:00:33.685Z,1007.01
2018-04-01T11:01:33.693Z,1007.03
2018-04-01T11:02:33.703Z,1007.09
2018-04-01T11:03:33.606Z,1007.10
2018-04-01T11:04:44.398Z,1007.02
2018-04-01T11:05:38.936Z,1007.04
2018-04-01T11:06:33.633Z,1007.09
2018-04-01T11:07:33.633Z,1007.12
2018-04-01T11:08:33.652Z,1007.15
2018-04-01T11:09:33.667Z,1007.13
2018-04-01T11:10:33.657Z,1007.17
2018-04-01T11:11:33.692Z,1007.18
2018-04-01T11:12:36.452Z,1007.20
2018-04-01T11:13:33.686Z,1007.15
2018-04-01T11:14:33.698Z,1007.17
2018-04-01T11:15:34.923Z,1007.14
2018-04-01T11:16:33.698Z,1007.20
2018-04-01T11:17:33.712Z,1007.24
2018-04-01T11:18:33.715Z,1007.27
2018-04-01T11:19:33.625Z,1007.28
2018-04-01T11:20:33.638Z,1007.28
2018-04-01T11:21:33.644Z,1007.27
2018-04-01T11:22:33.646Z,1007.25
2018-04-01T11:23:36.309Z,1007.27
2018-04-01T11:24:33.860Z,1007.33
2018-04-01T11:25:33.695Z,1007.34
2018-04-01T11:26:33.682Z,1007.32
2018-04-01T11:27:33.676Z,1007.22
2018-04-01T11:28:33.691Z,1007.28
2018-04-01T11:29:33.694Z,1007.31
2018-04-01T11:30:33.702Z,1007.34
2018-04-01T11:31:33.715Z,1007.39
2018-04-01T11:32:33.713Z,1007.44
2018-04-01T11:33:33.750Z,1007.43
2018-04-01T11:34:33.655Z,1007.41
2018-04-01T11:35:33.536Z,1007.37
2018-04-01T11:36:33.539Z,1007.43
2018-04-01T11:37:33.554Z,1007.39
2018-04-01T11:38:36.141Z,1007.39
2018-04-01T11:39:33.666Z,1007.33
2018-04-01T11:40:33.569Z,1007.42
2018-04-01T11:41:33.684Z,1007.41
2018-04-01T11:42:33.680Z,1007.40
2018-04-01T11:43:33.701Z,1007.37
2018-04-01T11:44:33.701Z,1007.37
2018-04-01T11:45:33.714Z,1007.40
2018-04-01T11:46:33.727Z,1007.36
2018-04-01T11:47:33.734Z,1007.38
2018-04-01T11:48:33.731Z,1007.36
2018-04-01T11:49:33.635Z,1007.31
2018-04-01T11:50:34.758Z,1007.38
2018-04-01T11:51:33.549Z,1007.36
2018-04-01T11:52:33.658Z,1007.36
2018-04-01T11:53:33.662Z,1007.27
2018-04-01T11:54:33.670Z,1007.26
2018-04-01T11:55:33.680Z,1007.37
2018-04-01T11:56:33.689Z,1007.34
2018-04-01T11:57:33.697Z,1007.39
2018-04-01T11:58:33.706Z,1007.36
2018-04-01T11:59:33.728Z,1007.31
2018-04-01T12:00:33.718Z,1007.34
2018-04-01T12:01:33.726Z,1007.29
2018-04-01T12:02:33.734Z,1007.29
2018-04-01T12:03:35.909Z,1007.35
2018-04-01T12:04:33.747Z,1007.31
2018-04-01T12:05:33.647Z,1007.30
2018-04-01T12:06:33.663Z,1007.31
2018-04-01T12:07:36.088Z,1007.28
2018-04-01T12:08:33.666Z,1007.32
2018-04-01T12:09:33.681Z,1007.30
2018-04-01T12:10:33.686Z,1007.28